sensor_id;sensor_type;location;lat;lon;timestamp;P1;durP1;ratioP1;P2;durP2;ratioP2
59976;SDS011;45837;51.076;3.578;2022-09-09T00:04:40;5.20;;;1.30;;
59976;SDS011;45837;51.076;3.578;2022-09-09T00:07:14;4.90;;;1.25;;
59976;SDS011;45837;51.076;3.578;2022-09-09T00:10:18;3.95;;;1.10;;
59976;SDS011;45837;51.076;3.578;2022-09-09T00:15:45;4.85;;;1.40;;
59976;SDS011;45837;51.076;3.578;2022-09-09T00:21:17;6.97;;;1.30;;
59976;SDS011;45837;51.076;3.578;2022-09-09T00:23:44;3.67;;;0.95;;
59976;SDS011;45837;51.076;3.578;2022-09-09T00:29:00;3.13;;;1.08;;
59976;SDS011;45837;51.076;3.578;2022-09-09T00:31:39;3.42;;;0.80;;
59976;SDS011;45837;51.076;3.578;2022-09-09T00:34:16;4.35;;;0.98;;
59976;SDS011;45837;51.076;3.578;2022-09-09T00:36:45;4.20;;;1.30;;
59976;SDS011;45837;51.076;3.578;2022-09-09T00:56:08;3.45;;;1.00;;
59976;SDS011;45837;51.076;3.578;2022-09-09T00:58:42;2.28;;;0.90;;
59976;SDS011;45837;51.076;3.578;2022-09-09T01:01:37;5.32;;;1.08;;
59976;SDS011;45837;51.076;3.578;2022-09-09T01:04:13;3.60;;;1.00;;
59976;SDS011;45837;51.076;3.578;2022-09-09T01:06:43;3.55;;;1.20;;
59976;SDS011;45837;51.076;3.578;2022-09-09T01:12:02;2.53;;;0.88;;
59976;SDS011;45837;51.076;3.578;2022-09-09T01:17:41;4.32;;;1.13;;
59976;SDS011;45837;51.076;3.578;2022-09-09T01:28:54;4.90;;;0.95;;
59976;SDS011;45837;51.076;3.578;2022-09-09T01:31:38;3.70;;;0.90;;
59976;SDS011;45837;51.076;3.578;2022-09-09T01:34:24;5.75;;;0.90;;
59976;SDS011;45837;51.076;3.578;2022-09-09T01:37:08;5.57;;;0.95;;
59976;SDS011;45837;51.076;3.578;2022-09-09T01:39:38;3.63;;;0.98;;
59976;SDS011;45837;51.076;3.578;2022-09-09T01:42:09;4.80;;;1.02;;
59976;SDS011;45837;51.076;3.578;2022-09-09T01:44:40;3.40;;;1.10;;
59976;SDS011;45837;51.076;3.578;2022-09-09T01:47:06;3.22;;;0.90;;
59976;SDS011;45837;51.076;3.578;2022-09-09T01:49:37;5.10;;;1.00;;
59976;SDS011;45837;51.076;3.578;2022-09-09T01:52:11;4.63;;;1.15;;
59976;SDS011;45837;51.076;3.578;2022-09-09T01:54:38;5.43;;;1.13;;
59976;SDS011;45837;51.076;3.578;2022-09-09T01:57:14;2.28;;;0.90;;
59976;SDS011;45837;51.076;3.578;2022-09-09T02:08:29;3.85;;;1.00;;
59976;SDS011;45837;51.076;3.578;2022-09-09T02:11:15;3.60;;;1.05;;
59976;SDS011;45837;51.076;3.578;2022-09-09T02:14:00;3.13;;;0.98;;
59976;SDS011;45837;51.076;3.578;2022-09-09T02:16:37;3.67;;;1.10;;
59976;SDS011;45837;51.076;3.578;2022-09-09T02:21:56;5.85;;;1.10;;
59976;SDS011;45837;51.076;3.578;2022-09-09T02:24:25;5.00;;;1.10;;
59976;SDS011;45837;51.076;3.578;2022-09-09T02:27:05;3.22;;;0.90;;
59976;SDS011;45837;51.076;3.578;2022-09-09T02:29:35;5.55;;;1.08;;
59976;SDS011;45837;51.076;3.578;2022-09-09T02:32:05;5.95;;;1.55;;
59976;SDS011;45837;51.076;3.578;2022-09-09T02:34:36;4.53;;;1.13;;
59976;SDS011;45837;51.076;3.578;2022-09-09T02:37:07;3.50;;;1.23;;
59976;SDS011;45837;51.076;3.578;2022-09-09T02:39:37;3.80;;;1.20;;
59976;SDS011;45837;51.076;3.578;2022-09-09T02:42:05;4.18;;;1.20;;
59976;SDS011;45837;51.076;3.578;2022-09-09T02:44:32;5.25;;;1.15;;
59976;SDS011;45837;51.076;3.578;2022-09-09T02:47:07;5.30;;;1.13;;
59976;SDS011;45837;51.076;3.578;2022-09-09T02:50:05;5.65;;;1.63;;
59976;SDS011;45837;51.076;3.578;2022-09-09T02:58:05;3.08;;;1.15;;
59976;SDS011;45837;51.076;3.578;2022-09-09T03:00:34;4.68;;;1.45;;
59976;SDS011;45837;51.076;3.578;2022-09-09T03:03:02;4.60;;;1.15;;
59976;SDS011;45837;51.076;3.578;2022-09-09T03:05:31;5.32;;;1.20;;
59976;SDS011;45837;51.076;3.578;2022-09-09T03:07:58;5.32;;;1.52;;
59976;SDS011;45837;51.076;3.578;2022-09-09T03:10:24;5.20;;;1.40;;
59976;SDS011;45837;51.076;3.578;2022-09-09T03:12:50;8.55;;;1.30;;
59976;SDS011;45837;51.076;3.578;2022-09-09T03:15:16;3.50;;;1.20;;
59976;SDS011;45837;51.076;3.578;2022-09-09T03:17:43;6.10;;;1.48;;
59976;SDS011;45837;51.076;3.578;2022-09-09T03:20:09;4.82;;;1.33;;
59976;SDS011;45837;51.076;3.578;2022-09-09T03:22:36;6.65;;;1.50;;
59976;SDS011;45837;51.076;3.578;2022-09-09T03:25:02;7.43;;;1.42;;
59976;SDS011;45837;51.076;3.578;2022-09-09T03:27:29;8.73;;;1.73;;
59976;SDS011;45837;51.076;3.578;2022-09-09T03:29:56;5.22;;;1.48;;
59976;SDS011;45837;51.076;3.578;2022-09-09T03:32:24;6.57;;;1.77;;
59976;SDS011;45837;51.076;3.578;2022-09-09T03:34:53;6.70;;;2.05;;
59976;SDS011;45837;51.076;3.578;2022-09-09T03:37:19;7.68;;;2.03;;
59976;SDS011;45837;51.076;3.578;2022-09-09T03:39:47;8.52;;;2.00;;
59976;SDS011;45837;51.076;3.578;2022-09-09T03:42:15;8.80;;;1.55;;
59976;SDS011;45837;51.076;3.578;2022-09-09T03:44:45;7.45;;;2.05;;
59976;SDS011;45837;51.076;3.578;2022-09-09T03:47:21;6.30;;;1.33;;
59976;SDS011;45837;51.076;3.578;2022-09-09T03:49:49;6.95;;;1.35;;
59976;SDS011;45837;51.076;3.578;2022-09-09T03:52:15;7.95;;;1.75;;
59976;SDS011;45837;51.076;3.578;2022-09-09T03:54:41;3.65;;;1.10;;
59976;SDS011;45837;51.076;3.578;2022-09-09T03:57:08;6.90;;;1.85;;
59976;SDS011;45837;51.076;3.578;2022-09-09T03:59:35;7.07;;;1.73;;
59976;SDS011;45837;51.076;3.578;2022-09-09T04:02:02;4.28;;;1.40;;
59976;SDS011;45837;51.076;3.578;2022-09-09T04:04:28;6.80;;;1.63;;
59976;SDS011;45837;51.076;3.578;2022-09-09T04:06:54;6.25;;;1.55;;
59976;SDS011;45837;51.076;3.578;2022-09-09T04:09:20;7.70;;;1.58;;
59976;SDS011;45837;51.076;3.578;2022-09-09T04:11:48;5.13;;;1.05;;
59976;SDS011;45837;51.076;3.578;2022-09-09T04:14:14;10.10;;;2.00;;
59976;SDS011;45837;51.076;3.578;2022-09-09T04:16:41;9.45;;;2.10;;
59976;SDS011;45837;51.076;3.578;2022-09-09T04:19:11;9.18;;;2.13;;
59976;SDS011;45837;51.076;3.578;2022-09-09T04:21:40;6.78;;;1.50;;
59976;SDS011;45837;51.076;3.578;2022-09-09T04:24:07;8.68;;;2.13;;
59976;SDS011;45837;51.076;3.578;2022-09-09T04:26:34;7.47;;;1.67;;
59976;SDS011;45837;51.076;3.578;2022-09-09T04:29:02;10.23;;;2.13;;
59976;SDS011;45837;51.076;3.578;2022-09-09T04:31:29;9.25;;;1.90;;
59976;SDS011;45837;51.076;3.578;2022-09-09T04:33:56;9.80;;;1.95;;
59976;SDS011;45837;51.076;3.578;2022-09-09T04:36:22;10.65;;;2.47;;
59976;SDS011;45837;51.076;3.578;2022-09-09T04:38:50;10.05;;;2.13;;
59976;SDS011;45837;51.076;3.578;2022-09-09T04:41:17;10.40;;;2.22;;
59976;SDS011;45837;51.076;3.578;2022-09-09T04:43:45;12.35;;;1.70;;
59976;SDS011;45837;51.076;3.578;2022-09-09T04:46:13;16.33;;;2.40;;
59976;SDS011;45837;51.076;3.578;2022-09-09T04:48:42;12.07;;;1.85;;
59976;SDS011;45837;51.076;3.578;2022-09-09T04:51:11;9.88;;;2.03;;
59976;SDS011;45837;51.076;3.578;2022-09-09T04:53:39;8.30;;;2.25;;
59976;SDS011;45837;51.076;3.578;2022-09-09T04:56:06;18.52;;;2.90;;
59976;SDS011;45837;51.076;3.578;2022-09-09T04:59:00;11.48;;;2.15;;
59976;SDS011;45837;51.076;3.578;2022-09-09T05:01:40;13.45;;;2.10;;
59976;SDS011;45837;51.076;3.578;2022-09-09T05:04:06;10.93;;;1.83;;
59976;SDS011;45837;51.076;3.578;2022-09-09T05:06:33;11.40;;;2.95;;
59976;SDS011;45837;51.076;3.578;2022-09-09T05:09:01;14.55;;;2.30;;
59976;SDS011;45837;51.076;3.578;2022-09-09T05:11:30;17.10;;;2.85;;
59976;SDS011;45837;51.076;3.578;2022-09-09T05:14:29;28.05;;;2.83;;
59976;SDS011;45837;51.076;3.578;2022-09-09T05:16:55;14.70;;;2.50;;
59976;SDS011;45837;51.076;3.578;2022-09-09T05:19:23;18.67;;;3.08;;
59976;SDS011;45837;51.076;3.578;2022-09-09T05:21:51;8.82;;;2.28;;
59976;SDS011;45837;51.076;3.578;2022-09-09T05:24:21;17.42;;;2.35;;
59976;SDS011;45837;51.076;3.578;2022-09-09T05:26:50;11.25;;;2.22;;
59976;SDS011;45837;51.076;3.578;2022-09-09T05:29:17;16.77;;;3.10;;
59976;SDS011;45837;51.076;3.578;2022-09-09T05:31:45;19.00;;;2.83;;
59976;SDS011;45837;51.076;3.578;2022-09-09T05:34:14;11.82;;;2.55;;
59976;SDS011;45837;51.076;3.578;2022-09-09T05:36:40;14.02;;;2.42;;
59976;SDS011;45837;51.076;3.578;2022-09-09T05:39:07;11.02;;;2.58;;
59976;SDS011;45837;51.076;3.578;2022-09-09T05:41:33;13.98;;;2.67;;
59976;SDS011;45837;51.076;3.578;2022-09-09T05:44:02;9.07;;;1.75;;
59976;SDS011;45837;51.076;3.578;2022-09-09T05:46:30;8.88;;;2.08;;
59976;SDS011;45837;51.076;3.578;2022-09-09T05:48:55;15.93;;;2.45;;
59976;SDS011;45837;51.076;3.578;2022-09-09T05:51:27;12.63;;;2.45;;
59976;SDS011;45837;51.076;3.578;2022-09-09T05:53:56;14.60;;;2.95;;
59976;SDS011;45837;51.076;3.578;2022-09-09T05:56:28;14.75;;;2.90;;
59976;SDS011;45837;51.076;3.578;2022-09-09T05:58:56;11.40;;;2.42;;
59976;SDS011;45837;51.076;3.578;2022-09-09T06:01:26;8.57;;;2.17;;
59976;SDS011;45837;51.076;3.578;2022-09-09T06:03:55;7.88;;;2.28;;
59976;SDS011;45837;51.076;3.578;2022-09-09T06:06:23;12.13;;;2.60;;
59976;SDS011;45837;51.076;3.578;2022-09-09T06:08:53;16.80;;;2.95;;
59976;SDS011;45837;51.076;3.578;2022-09-09T06:11:24;14.15;;;2.85;;
59976;SDS011;45837;51.076;3.578;2022-09-09T06:13:51;10.82;;;2.42;;
59976;SDS011;45837;51.076;3.578;2022-09-09T06:16:20;12.32;;;2.65;;
59976;SDS011;45837;51.076;3.578;2022-09-09T06:18:52;12.70;;;2.30;;
59976;SDS011;45837;51.076;3.578;2022-09-09T06:21:20;9.02;;;2.30;;
59976;SDS011;45837;51.076;3.578;2022-09-09T06:23:49;8.98;;;2.50;;
59976;SDS011;45837;51.076;3.578;2022-09-09T06:26:17;10.35;;;2.53;;
59976;SDS011;45837;51.076;3.578;2022-09-09T06:28:49;10.70;;;2.08;;
59976;SDS011;45837;51.076;3.578;2022-09-09T06:31:19;11.82;;;2.22;;
59976;SDS011;45837;51.076;3.578;2022-09-09T06:33:48;13.57;;;2.70;;
59976;SDS011;45837;51.076;3.578;2022-09-09T06:36:16;11.32;;;1.95;;
59976;SDS011;45837;51.076;3.578;2022-09-09T06:38:43;13.18;;;2.70;;
59976;SDS011;45837;51.076;3.578;2022-09-09T06:46:12;9.75;;;1.98;;
59976;SDS011;45837;51.076;3.578;2022-09-09T06:48:40;7.78;;;2.00;;
59976;SDS011;45837;51.076;3.578;2022-09-09T06:51:12;9.73;;;1.90;;
59976;SDS011;45837;51.076;3.578;2022-09-09T06:53:43;8.52;;;2.17;;
59976;SDS011;45837;51.076;3.578;2022-09-09T06:56:19;11.38;;;2.35;;
59976;SDS011;45837;51.076;3.578;2022-09-09T06:58:49;14.18;;;2.60;;
59976;SDS011;45837;51.076;3.578;2022-09-09T07:01:23;10.63;;;2.00;;
59976;SDS011;45837;51.076;3.578;2022-09-09T07:03:52;8.40;;;2.33;;
59976;SDS011;45837;51.076;3.578;2022-09-09T07:06:23;13.70;;;2.45;;
59976;SDS011;45837;51.076;3.578;2022-09-09T07:08:52;15.60;;;2.42;;
59976;SDS011;45837;51.076;3.578;2022-09-09T07:11:27;9.73;;;2.03;;
59976;SDS011;45837;51.076;3.578;2022-09-09T07:13:56;9.85;;;2.28;;
59976;SDS011;45837;51.076;3.578;2022-09-09T07:16:23;8.43;;;2.30;;
59976;SDS011;45837;51.076;3.578;2022-09-09T07:18:50;8.57;;;2.03;;
59976;SDS011;45837;51.076;3.578;2022-09-09T07:21:17;10.55;;;2.17;;
59976;SDS011;45837;51.076;3.578;2022-09-09T07:23:44;9.60;;;2.42;;
59976;SDS011;45837;51.076;3.578;2022-09-09T07:26:11;15.55;;;2.35;;
59976;SDS011;45837;51.076;3.578;2022-09-09T07:28:39;11.57;;;1.98;;
59976;SDS011;45837;51.076;3.578;2022-09-09T07:31:07;11.50;;;2.30;;
59976;SDS011;45837;51.076;3.578;2022-09-09T07:33:39;7.18;;;2.10;;
59976;SDS011;45837;51.076;3.578;2022-09-09T07:36:07;11.45;;;2.17;;
59976;SDS011;45837;51.076;3.578;2022-09-09T07:38:41;10.52;;;1.92;;
59976;SDS011;45837;51.076;3.578;2022-09-09T07:41:12;8.73;;;2.20;;
59976;SDS011;45837;51.076;3.578;2022-09-09T07:43:45;7.78;;;2.03;;
59976;SDS011;45837;51.076;3.578;2022-09-09T07:46:13;10.48;;;2.50;;
59976;SDS011;45837;51.076;3.578;2022-09-09T07:48:44;11.00;;;2.40;;
59976;SDS011;45837;51.076;3.578;2022-09-09T07:51:13;11.13;;;2.20;;
59976;SDS011;45837;51.076;3.578;2022-09-09T07:53:45;8.32;;;2.38;;
59976;SDS011;45837;51.076;3.578;2022-09-09T07:56:13;8.82;;;2.13;;
59976;SDS011;45837;51.076;3.578;2022-09-09T07:58:44;7.70;;;2.05;;
59976;SDS011;45837;51.076;3.578;2022-09-09T08:01:19;8.40;;;2.00;;
59976;SDS011;45837;51.076;3.578;2022-09-09T08:03:52;7.07;;;1.95;;
59976;SDS011;45837;51.076;3.578;2022-09-09T08:06:24;9.18;;;2.30;;
59976;SDS011;45837;51.076;3.578;2022-09-09T08:08:52;13.82;;;1.95;;
59976;SDS011;45837;51.076;3.578;2022-09-09T08:11:22;7.32;;;1.95;;
59976;SDS011;45837;51.076;3.578;2022-09-09T08:13:49;6.93;;;1.75;;
59976;SDS011;45837;51.076;3.578;2022-09-09T08:16:18;8.50;;;2.17;;
59976;SDS011;45837;51.076;3.578;2022-09-09T08:18:49;10.38;;;1.98;;
59976;SDS011;45837;51.076;3.578;2022-09-09T08:21:23;6.65;;;1.65;;
59976;SDS011;45837;51.076;3.578;2022-09-09T08:23:52;11.52;;;2.13;;
59976;SDS011;45837;51.076;3.578;2022-09-09T08:26:20;11.15;;;2.00;;
59976;SDS011;45837;51.076;3.578;2022-09-09T08:28:49;7.75;;;1.98;;
59976;SDS011;45837;51.076;3.578;2022-09-09T08:31:21;11.88;;;2.28;;
59976;SDS011;45837;51.076;3.578;2022-09-09T08:33:50;6.78;;;1.65;;
59976;SDS011;45837;51.076;3.578;2022-09-09T08:36:17;9.15;;;2.05;;
59976;SDS011;45837;51.076;3.578;2022-09-09T08:38:49;7.97;;;2.00;;
59976;SDS011;45837;51.076;3.578;2022-09-09T08:43:50;8.80;;;1.92;;
59976;SDS011;45837;51.076;3.578;2022-09-09T08:46:21;7.75;;;1.90;;
59976;SDS011;45837;51.076;3.578;2022-09-09T08:51:58;9.45;;;1.85;;
59976;SDS011;45837;51.076;3.578;2022-09-09T08:54:26;7.80;;;1.95;;
59976;SDS011;45837;51.076;3.578;2022-09-09T08:56:58;12.27;;;2.00;;
59976;SDS011;45837;51.076;3.578;2022-09-09T08:59:24;9.20;;;2.08;;
59976;SDS011;45837;51.076;3.578;2022-09-09T09:02:04;7.35;;;1.88;;
59976;SDS011;45837;51.076;3.578;2022-09-09T09:08:08;9.35;;;1.98;;
59976;SDS011;45837;51.076;3.578;2022-09-09T09:10:35;6.43;;;1.73;;
59976;SDS011;45837;51.076;3.578;2022-09-09T09:13:17;8.38;;;1.88;;
59976;SDS011;45837;51.076;3.578;2022-09-09T09:15:52;7.45;;;1.77;;
59976;SDS011;45837;51.076;3.578;2022-09-09T09:18:24;7.00;;;1.98;;
59976;SDS011;45837;51.076;3.578;2022-09-09T09:21:00;9.75;;;2.20;;
59976;SDS011;45837;51.076;3.578;2022-09-09T09:23:34;14.55;;;2.20;;
59976;SDS011;45837;51.076;3.578;2022-09-09T09:26:09;6.70;;;1.70;;
59976;SDS011;45837;51.076;3.578;2022-09-09T09:28:38;9.38;;;2.15;;
59976;SDS011;45837;51.076;3.578;2022-09-09T09:31:12;7.95;;;2.38;;
59976;SDS011;45837;51.076;3.578;2022-09-09T09:36:23;8.20;;;1.67;;
59976;SDS011;45837;51.076;3.578;2022-09-09T09:38:55;9.45;;;1.70;;
59976;SDS011;45837;51.076;3.578;2022-09-09T09:41:36;5.13;;;1.67;;
59976;SDS011;45837;51.076;3.578;2022-09-09T09:44:05;6.57;;;1.50;;
59976;SDS011;45837;51.076;3.578;2022-09-09T09:46:52;6.97;;;1.73;;
59976;SDS011;45837;51.076;3.578;2022-09-09T09:49:30;8.63;;;1.85;;
59976;SDS011;45837;51.076;3.578;2022-09-09T09:52:00;6.80;;;1.40;;
59976;SDS011;45837;51.076;3.578;2022-09-09T09:54:31;5.72;;;1.45;;
59976;SDS011;45837;51.076;3.578;2022-09-09T09:57:12;5.90;;;1.58;;
59976;SDS011;45837;51.076;3.578;2022-09-09T09:59:42;6.35;;;1.48;;
59976;SDS011;45837;51.076;3.578;2022-09-09T10:02:24;7.07;;;1.77;;
59976;SDS011;45837;51.076;3.578;2022-09-09T10:07:39;9.35;;;1.85;;
59976;SDS011;45837;51.076;3.578;2022-09-09T10:10:05;6.40;;;1.73;;
59976;SDS011;45837;51.076;3.578;2022-09-09T10:17:45;7.03;;;2.13;;
59976;SDS011;45837;51.076;3.578;2022-09-09T10:22:50;5.05;;;1.55;;
59976;SDS011;45837;51.076;3.578;2022-09-09T10:25:22;4.53;;;1.27;;
59976;SDS011;45837;51.076;3.578;2022-09-09T10:28:26;7.28;;;1.42;;
59976;SDS011;45837;51.076;3.578;2022-09-09T10:33:28;5.35;;;1.38;;
59976;SDS011;45837;51.076;3.578;2022-09-09T10:36:19;4.75;;;1.30;;
59976;SDS011;45837;51.076;3.578;2022-09-09T10:38:48;3.63;;;1.50;;
59976;SDS011;45837;51.076;3.578;2022-09-09T10:44:23;4.00;;;1.30;;
59976;SDS011;45837;51.076;3.578;2022-09-09T10:49:42;4.80;;;1.60;;
59976;SDS011;45837;51.076;3.578;2022-09-09T10:52:29;5.68;;;1.35;;
59976;SDS011;45837;51.076;3.578;2022-09-09T10:55:23;6.88;;;1.60;;
59976;SDS011;45837;51.076;3.578;2022-09-09T10:57:55;3.53;;;1.10;;
59976;SDS011;45837;51.076;3.578;2022-09-09T11:00:25;6.70;;;1.42;;
59976;SDS011;45837;51.076;3.578;2022-09-09T11:03:05;5.65;;;1.33;;
59976;SDS011;45837;51.076;3.578;2022-09-09T11:05:42;5.82;;;1.40;;
59976;SDS011;45837;51.076;3.578;2022-09-09T11:16:16;5.55;;;1.48;;
59976;SDS011;45837;51.076;3.578;2022-09-09T11:18:44;3.70;;;1.30;;
59976;SDS011;45837;51.076;3.578;2022-09-09T11:24:11;3.47;;;1.10;;
59976;SDS011;45837;51.076;3.578;2022-09-09T11:26:47;6.32;;;1.40;;
59976;SDS011;45837;51.076;3.578;2022-09-09T11:35:38;4.65;;;1.52;;
59976;SDS011;45837;51.076;3.578;2022-09-09T11:40:44;4.88;;;1.20;;
59976;SDS011;45837;51.076;3.578;2022-09-09T11:43:15;3.85;;;1.35;;
59976;SDS011;45837;51.076;3.578;2022-09-09T11:45:54;5.43;;;1.30;;
59976;SDS011;45837;51.076;3.578;2022-09-09T11:48:29;4.50;;;1.20;;
59976;SDS011;45837;51.076;3.578;2022-09-09T11:51:10;3.58;;;1.08;;
59976;SDS011;45837;51.076;3.578;2022-09-09T11:56:25;6.68;;;1.20;;
59976;SDS011;45837;51.076;3.578;2022-09-09T11:58:57;5.13;;;1.20;;
59976;SDS011;45837;51.076;3.578;2022-09-09T12:01:39;3.30;;;0.88;;
59976;SDS011;45837;51.076;3.578;2022-09-09T12:04:12;4.65;;;1.48;;
59976;SDS011;45837;51.076;3.578;2022-09-09T12:06:44;3.78;;;1.40;;
59976;SDS011;45837;51.076;3.578;2022-09-09T12:11:43;3.20;;;1.02;;
59976;SDS011;45837;51.076;3.578;2022-09-09T12:14:19;4.32;;;0.90;;
59976;SDS011;45837;51.076;3.578;2022-09-09T12:16:46;5.90;;;1.00;;
59976;SDS011;45837;51.076;3.578;2022-09-09T12:19:16;3.35;;;1.20;;
59976;SDS011;45837;51.076;3.578;2022-09-09T12:25:08;3.33;;;1.20;;
59976;SDS011;45837;51.076;3.578;2022-09-09T12:27:24;3.15;;;1.20;;
59976;SDS011;45837;51.076;3.578;2022-09-09T12:32:27;6.13;;;1.10;;
59976;SDS011;45837;51.076;3.578;2022-09-09T12:34:56;6.13;;;1.73;;
59976;SDS011;45837;51.076;3.578;2022-09-09T12:37:34;3.78;;;1.20;;
59976;SDS011;45837;51.076;3.578;2022-09-09T12:40:01;4.88;;;1.10;;
59976;SDS011;45837;51.076;3.578;2022-09-09T12:42:28;3.60;;;0.98;;
59976;SDS011;45837;51.076;3.578;2022-09-09T12:44:58;4.70;;;1.00;;
59976;SDS011;45837;51.076;3.578;2022-09-09T12:50:03;4.13;;;1.33;;
59976;SDS011;45837;51.076;3.578;2022-09-09T12:52:34;6.72;;;1.20;;
59976;SDS011;45837;51.076;3.578;2022-09-09T12:55:03;4.22;;;1.35;;
59976;SDS011;45837;51.076;3.578;2022-09-09T12:57:33;7.47;;;1.60;;
59976;SDS011;45837;51.076;3.578;2022-09-09T13:00:21;2.92;;;1.20;;
59976;SDS011;45837;51.076;3.578;2022-09-09T13:02:51;3.92;;;1.30;;
59976;SDS011;45837;51.076;3.578;2022-09-09T13:05:22;6.70;;;1.27;;
59976;SDS011;45837;51.076;3.578;2022-09-09T13:08:03;3.90;;;1.00;;
59976;SDS011;45837;51.076;3.578;2022-09-09T13:10:33;3.30;;;0.88;;
59976;SDS011;45837;51.076;3.578;2022-09-09T13:13:05;3.40;;;1.00;;
59976;SDS011;45837;51.076;3.578;2022-09-09T13:15:39;5.82;;;1.20;;
59976;SDS011;45837;51.076;3.578;2022-09-09T13:20:44;4.63;;;1.40;;
59976;SDS011;45837;51.076;3.578;2022-09-09T13:23:12;4.30;;;1.27;;
59976;SDS011;45837;51.076;3.578;2022-09-09T13:25:38;5.05;;;1.20;;
59976;SDS011;45837;51.076;3.578;2022-09-09T13:28:04;6.25;;;1.52;;
59976;SDS011;45837;51.076;3.578;2022-09-09T13:30:54;3.55;;;1.30;;
59976;SDS011;45837;51.076;3.578;2022-09-09T13:33:29;5.57;;;1.10;;
59976;SDS011;45837;51.076;3.578;2022-09-09T13:35:57;5.82;;;1.33;;
59976;SDS011;45837;51.076;3.578;2022-09-09T13:38:27;2.53;;;0.85;;
59976;SDS011;45837;51.076;3.578;2022-09-09T13:40:55;3.75;;;1.25;;
59976;SDS011;45837;51.076;3.578;2022-09-09T13:43:43;3.72;;;1.08;;
59976;SDS011;45837;51.076;3.578;2022-09-09T13:48:55;5.75;;;1.23;;
59976;SDS011;45837;51.076;3.578;2022-09-09T13:51:27;6.72;;;1.70;;
59976;SDS011;45837;51.076;3.578;2022-09-09T13:54:00;9.25;;;1.63;;
59976;SDS011;45837;51.076;3.578;2022-09-09T13:56:26;5.13;;;1.15;;
59976;SDS011;45837;51.076;3.578;2022-09-09T13:58:52;6.57;;;1.52;;
59976;SDS011;45837;51.076;3.578;2022-09-09T14:01:18;3.97;;;1.10;;
59976;SDS011;45837;51.076;3.578;2022-09-09T14:03:44;4.15;;;1.30;;
59976;SDS011;45837;51.076;3.578;2022-09-09T14:06:10;7.10;;;1.17;;
59976;SDS011;45837;51.076;3.578;2022-09-09T14:08:36;3.83;;;1.20;;
59976;SDS011;45837;51.076;3.578;2022-09-09T14:11:03;4.10;;;1.20;;
59976;SDS011;45837;51.076;3.578;2022-09-09T14:13:29;3.50;;;0.98;;
59976;SDS011;45837;51.076;3.578;2022-09-09T14:15:55;7.47;;;1.70;;
59976;SDS011;45837;51.076;3.578;2022-09-09T14:18:21;4.28;;;1.50;;
59976;SDS011;45837;51.076;3.578;2022-09-09T14:20:48;3.28;;;1.00;;
59976;SDS011;45837;51.076;3.578;2022-09-09T14:23:15;6.00;;;1.23;;
59976;SDS011;45837;51.076;3.578;2022-09-09T14:25:41;5.88;;;1.30;;
59976;SDS011;45837;51.076;3.578;2022-09-09T14:28:12;8.82;;;1.23;;
59976;SDS011;45837;51.076;3.578;2022-09-09T14:30:41;5.88;;;1.10;;
59976;SDS011;45837;51.076;3.578;2022-09-09T14:33:10;4.20;;;1.30;;
59976;SDS011;45837;51.076;3.578;2022-09-09T14:35:38;7.88;;;2.05;;
59976;SDS011;45837;51.076;3.578;2022-09-09T14:38:06;4.28;;;1.63;;
59976;SDS011;45837;51.076;3.578;2022-09-09T14:40:33;4.32;;;1.52;;
59976;SDS011;45837;51.076;3.578;2022-09-09T14:43:00;3.42;;;1.15;;
59976;SDS011;45837;51.076;3.578;2022-09-09T14:45:26;5.15;;;1.48;;
59976;SDS011;45837;51.076;3.578;2022-09-09T14:47:52;4.88;;;1.20;;
59976;SDS011;45837;51.076;3.578;2022-09-09T14:50:18;5.85;;;1.50;;
59976;SDS011;45837;51.076;3.578;2022-09-09T14:52:44;6.43;;;1.52;;
59976;SDS011;45837;51.076;3.578;2022-09-09T14:55:10;4.60;;;1.38;;
59976;SDS011;45837;51.076;3.578;2022-09-09T14:57:36;9.35;;;1.40;;
59976;SDS011;45837;51.076;3.578;2022-09-09T15:00:04;6.72;;;1.45;;
59976;SDS011;45837;51.076;3.578;2022-09-09T15:02:30;3.22;;;1.02;;
59976;SDS011;45837;51.076;3.578;2022-09-09T15:04:56;6.68;;;1.75;;
59976;SDS011;45837;51.076;3.578;2022-09-09T15:07:23;5.57;;;1.50;;
59976;SDS011;45837;51.076;3.578;2022-09-09T15:09:49;5.82;;;1.90;;
59976;SDS011;45837;51.076;3.578;2022-09-09T15:12:15;5.97;;;1.25;;
59976;SDS011;45837;51.076;3.578;2022-09-09T15:14:43;8.95;;;1.60;;
59976;SDS011;45837;51.076;3.578;2022-09-09T15:17:10;9.88;;;1.80;;
59976;SDS011;45837;51.076;3.578;2022-09-09T15:19:36;12.50;;;1.90;;
59976;SDS011;45837;51.076;3.578;2022-09-09T15:22:03;10.48;;;2.38;;
59976;SDS011;45837;51.076;3.578;2022-09-09T15:24:32;10.23;;;1.80;;
59976;SDS011;45837;51.076;3.578;2022-09-09T15:26:58;7.25;;;1.75;;
59976;SDS011;45837;51.076;3.578;2022-09-09T15:29:25;5.70;;;1.48;;
59976;SDS011;45837;51.076;3.578;2022-09-09T15:31:53;10.65;;;1.40;;
59976;SDS011;45837;51.076;3.578;2022-09-09T15:34:20;8.38;;;1.50;;
59976;SDS011;45837;51.076;3.578;2022-09-09T15:36:46;10.38;;;1.70;;
59976;SDS011;45837;51.076;3.578;2022-09-09T15:39:16;9.85;;;1.25;;
59976;SDS011;45837;51.076;3.578;2022-09-09T15:41:43;8.75;;;1.70;;
59976;SDS011;45837;51.076;3.578;2022-09-09T15:44:10;9.07;;;2.05;;
59976;SDS011;45837;51.076;3.578;2022-09-09T15:46:38;5.40;;;1.35;;
59976;SDS011;45837;51.076;3.578;2022-09-09T15:49:14;9.77;;;1.48;;
59976;SDS011;45837;51.076;3.578;2022-09-09T15:51:45;7.47;;;1.67;;
59976;SDS011;45837;51.076;3.578;2022-09-09T15:54:13;9.02;;;1.60;;
59976;SDS011;45837;51.076;3.578;2022-09-09T15:56:42;6.78;;;1.45;;
59976;SDS011;45837;51.076;3.578;2022-09-09T15:59:08;7.22;;;1.60;;
59976;SDS011;45837;51.076;3.578;2022-09-09T16:01:34;5.40;;;1.40;;
59976;SDS011;45837;51.076;3.578;2022-09-09T16:04:01;15.13;;;1.60;;
59976;SDS011;45837;51.076;3.578;2022-09-09T16:06:27;11.48;;;1.55;;
59976;SDS011;45837;51.076;3.578;2022-09-09T16:08:54;13.27;;;1.77;;
59976;SDS011;45837;51.076;3.578;2022-09-09T16:11:22;14.68;;;1.90;;
59976;SDS011;45837;51.076;3.578;2022-09-09T16:13:50;15.40;;;1.90;;
59976;SDS011;45837;51.076;3.578;2022-09-09T16:16:18;9.80;;;2.17;;
59976;SDS011;45837;51.076;3.578;2022-09-09T16:18:50;5.93;;;1.75;;
59976;SDS011;45837;51.076;3.578;2022-09-09T16:21:20;9.80;;;1.77;;
59976;SDS011;45837;51.076;3.578;2022-09-09T16:23:49;7.00;;;1.63;;
59976;SDS011;45837;51.076;3.578;2022-09-09T16:26:16;7.55;;;1.50;;
59976;SDS011;45837;51.076;3.578;2022-09-09T16:28:42;16.70;;;2.10;;
59976;SDS011;45837;51.076;3.578;2022-09-09T16:31:21;10.85;;;1.92;;
59976;SDS011;45837;51.076;3.578;2022-09-09T16:33:49;5.35;;;1.70;;
59976;SDS011;45837;51.076;3.578;2022-09-09T16:36:17;8.77;;;1.55;;
59976;SDS011;45837;51.076;3.578;2022-09-09T16:38:47;9.73;;;1.65;;
59976;SDS011;45837;51.076;3.578;2022-09-09T16:41:16;13.68;;;1.95;;
59976;SDS011;45837;51.076;3.578;2022-09-09T16:43:55;11.10;;;2.33;;
59976;SDS011;45837;51.076;3.578;2022-09-09T16:46:22;6.25;;;2.20;;
59976;SDS011;45837;51.076;3.578;2022-09-09T16:48:49;8.93;;;1.83;;
59976;SDS011;45837;51.076;3.578;2022-09-09T16:51:17;10.18;;;1.98;;
59976;SDS011;45837;51.076;3.578;2022-09-09T16:53:44;12.95;;;1.65;;
59976;SDS011;45837;51.076;3.578;2022-09-09T16:56:19;10.30;;;2.08;;
59976;SDS011;45837;51.076;3.578;2022-09-09T16:58:56;7.47;;;2.05;;
59976;SDS011;45837;51.076;3.578;2022-09-09T17:01:23;12.43;;;2.33;;
59976;SDS011;45837;51.076;3.578;2022-09-09T17:03:54;9.35;;;1.83;;
59976;SDS011;45837;51.076;3.578;2022-09-09T17:06:20;10.65;;;1.88;;
59976;SDS011;45837;51.076;3.578;2022-09-09T17:08:47;7.13;;;1.58;;
59976;SDS011;45837;51.076;3.578;2022-09-09T17:11:14;7.25;;;1.83;;
59976;SDS011;45837;51.076;3.578;2022-09-09T17:13:43;8.15;;;1.60;;
59976;SDS011;45837;51.076;3.578;2022-09-09T17:16:13;7.72;;;2.10;;
59976;SDS011;45837;51.076;3.578;2022-09-09T17:18:40;9.40;;;1.73;;
59976;SDS011;45837;51.076;3.578;2022-09-09T17:21:07;6.75;;;1.80;;